Tofield, Canada
Current Conditions -  °F | °C
As of 8:00 PM on Saturday 25 Oct 2014 (Local Time) from CYXD Reporting Station
Overcast Overcast  
Wind Chill: 38°   Ceiling: 5300
Heat Index: 45°   Visibility: 9mi
Dew Point: 27°   Wind: 14mph
Humidity: 49%   Direction: 100°E
Pressure: 29.6"   Gusts: 21mph
Location:  53.37°N, 112.67°W
Report Text: CYXD 260200Z AUTO 10012G18KT 9SM OVC053 OVC076 07/M03 A2960 RMKSLP044
Loading
Personal Weather Stations






























Interactive Weather Map
Tropical Storm Tracking
New forecast layout! Learn more

10-Day Weather Forecast

Advertisements
Track Severe Weather on mobile